sensor_id;sensor_type;location;lat;lon;timestamp;pressure;altitude;pressure_sealevel;temperature;humidity
37066;BME280;22981;43.080;25.550;2023-03-18T00:02:01;100297.95;;;0.73;73.35
37066;BME280;22981;43.080;25.550;2023-03-18T00:04:29;100297.95;;;0.73;73.35
37066;BME280;22981;43.080;25.550;2023-03-18T00:06:57;100286.47;;;0.59;73.39
37066;BME280;22981;43.080;25.550;2023-03-18T00:09:25;100286.47;;;0.59;73.39
37066;BME280;22981;43.080;25.550;2023-03-18T00:11:53;100296.84;;;0.50;73.55
37066;BME280;22981;43.080;25.550;2023-03-18T00:14:22;100299.77;;;0.47;73.80
37066;BME280;22981;43.080;25.550;2023-03-18T00:16:50;100299.77;;;0.47;73.80
37066;BME280;22981;43.080;25.550;2023-03-18T00:19:17;100295.18;;;0.49;73.67
37066;BME280;22981;43.080;25.550;2023-03-18T00:21:45;100295.67;;;0.49;73.77
37066;BME280;22981;43.080;25.550;2023-03-18T00:24:13;100288.11;;;0.50;73.87
37066;BME280;22981;43.080;25.550;2023-03-18T00:26:40;100286.22;;;0.46;74.08
37066;BME280;22981;43.080;25.550;2023-03-18T00:29:09;100286.22;;;0.46;74.08
37066;BME280;22981;43.080;25.550;2023-03-18T00:31:37;100286.70;;;0.46;74.07
37066;BME280;22981;43.080;25.550;2023-03-18T00:34:05;100269.00;;;0.33;74.49
37066;BME280;22981;43.080;25.550;2023-03-18T00:36:33;100268.25;;;0.36;74.49
37066;BME280;22981;43.080;25.550;2023-03-18T00:39:02;100268.25;;;0.36;74.49
37066;BME280;22981;43.080;25.550;2023-03-18T00:41:31;100275.48;;;0.44;74.46
37066;BME280;22981;43.080;25.550;2023-03-18T00:44:05;100270.22;;;0.44;74.34
37066;BME280;22981;43.080;25.550;2023-03-18T00:46:34;100268.27;;;0.46;74.42
37066;BME280;22981;43.080;25.550;2023-03-18T00:49:05;100268.27;;;0.46;74.42
37066;BME280;22981;43.080;25.550;2023-03-18T00:51:34;100267.09;;;0.44;74.39
37066;BME280;22981;43.080;25.550;2023-03-18T00:54:04;100260.92;;;0.40;74.54
37066;BME280;22981;43.080;25.550;2023-03-18T00:56:34;100264.04;;;0.39;74.59
37066;BME280;22981;43.080;25.550;2023-03-18T00:59:03;100263.58;;;0.34;74.67
37066;BME280;22981;43.080;25.550;2023-03-18T01:01:32;100262.90;;;0.32;74.81
37066;BME280;22981;43.080;25.550;2023-03-18T01:04:00;100255.34;;;0.33;74.92
37066;BME280;22981;43.080;25.550;2023-03-18T01:06:29;100258.48;;;0.42;75.04
37066;BME280;22981;43.080;25.550;2023-03-18T01:08:57;100258.48;;;0.42;75.04
37066;BME280;22981;43.080;25.550;2023-03-18T01:11:27;100251.55;;;0.41;74.87
37066;BME280;22981;43.080;25.550;2023-03-18T01:13:55;100254.07;;;0.43;74.83
37066;BME280;22981;43.080;25.550;2023-03-18T01:16:24;100253.92;;;0.44;74.85
37066;BME280;22981;43.080;25.550;2023-03-18T01:18:52;100253.92;;;0.44;74.87
37066;BME280;22981;43.080;25.550;2023-03-18T01:21:20;100246.55;;;0.38;74.94
37066;BME280;22981;43.080;25.550;2023-03-18T01:23:49;100246.55;;;0.38;74.94
37066;BME280;22981;43.080;25.550;2023-03-18T01:26:16;100241.69;;;0.34;75.03
37066;BME280;22981;43.080;25.550;2023-03-18T01:28:44;100242.39;;;0.36;75.21
37066;BME280;22981;43.080;25.550;2023-03-18T01:31:12;100241.57;;;0.35;75.21
37066;BME280;22981;43.080;25.550;2023-03-18T01:33:40;100240.58;;;0.27;75.26
37066;BME280;22981;43.080;25.550;2023-03-18T01:36:08;100239.86;;;0.24;75.43
37066;BME280;22981;43.080;25.550;2023-03-18T01:38:36;100238.69;;;0.23;75.63
37066;BME280;22981;43.080;25.550;2023-03-18T01:41:04;100236.25;;;0.25;75.71
37066;BME280;22981;43.080;25.550;2023-03-18T01:43:34;100239.52;;;0.23;75.79
37066;BME280;22981;43.080;25.550;2023-03-18T01:48:49;100245.27;;;0.23;75.79
37066;BME280;22981;43.080;25.550;2023-03-18T01:51:17;100241.33;;;0.23;75.76
37066;BME280;22981;43.080;25.550;2023-03-18T01:53:47;100236.80;;;0.19;75.81
37066;BME280;22981;43.080;25.550;2023-03-18T01:56:16;100236.80;;;0.19;75.81
37066;BME280;22981;43.080;25.550;2023-03-18T01:58:47;100234.25;;;0.23;75.93
37066;BME280;22981;43.080;25.550;2023-03-18T02:01:27;100241.47;;;0.21;75.88
37066;BME280;22981;43.080;25.550;2023-03-18T02:03:57;100234.73;;;0.23;75.99
37066;BME280;22981;43.080;25.550;2023-03-18T02:06:26;100237.37;;;0.23;75.99
37066;BME280;22981;43.080;25.550;2023-03-18T02:08:55;100238.69;;;0.23;76.01
37066;BME280;22981;43.080;25.550;2023-03-18T02:11:23;100235.91;;;0.24;76.08
37066;BME280;22981;43.080;25.550;2023-03-18T02:13:51;100227.89;;;0.26;75.94
37066;BME280;22981;43.080;25.550;2023-03-18T02:16:25;100227.89;;;0.26;75.94
37066;BME280;22981;43.080;25.550;2023-03-18T02:18:57;100239.83;;;0.30;75.88
37066;BME280;22981;43.080;25.550;2023-03-18T02:21:54;100238.14;;;0.29;75.80
37066;BME280;22981;43.080;25.550;2023-03-18T02:24:32;100234.67;;;0.29;75.74
37066;BME280;22981;43.080;25.550;2023-03-18T02:27:48;100237.03;;;0.22;75.69
37066;BME280;22981;43.080;25.550;2023-03-18T02:29:33;100234.02;;;0.21;75.71
37066;BME280;22981;43.080;25.550;2023-03-18T02:32:04;100242.07;;;0.19;75.66
37066;BME280;22981;43.080;25.550;2023-03-18T02:34:33;100239.92;;;0.19;75.68
37066;BME280;22981;43.080;25.550;2023-03-18T02:37:01;100236.12;;;0.17;75.69
37066;BME280;22981;43.080;25.550;2023-03-18T02:39:29;100237.20;;;0.15;75.81
37066;BME280;22981;43.080;25.550;2023-03-18T02:41:57;100237.27;;;0.09;75.86
37066;BME280;22981;43.080;25.550;2023-03-18T02:44:24;100237.18;;;0.05;75.92
37066;BME280;22981;43.080;25.550;2023-03-18T02:47:03;100233.97;;;0.02;76.02
37066;BME280;22981;43.080;25.550;2023-03-18T02:49:31;100228.37;;;0.01;76.12
37066;BME280;22981;43.080;25.550;2023-03-18T02:51:59;100228.97;;;-0.02;76.10
37066;BME280;22981;43.080;25.550;2023-03-18T02:54:29;100236.75;;;0.00;76.18
37066;BME280;22981;43.080;25.550;2023-03-18T02:56:57;100237.78;;;0.03;76.12
37066;BME280;22981;43.080;25.550;2023-03-18T02:59:26;100243.13;;;0.07;75.79
37066;BME280;22981;43.080;25.550;2023-03-18T03:01:54;100243.13;;;0.07;75.79
37066;BME280;22981;43.080;25.550;2023-03-18T03:04:24;100244.11;;;0.06;76.00
37066;BME280;22981;43.080;25.550;2023-03-18T03:06:53;100234.89;;;0.06;76.29
37066;BME280;22981;43.080;25.550;2023-03-18T03:09:22;100234.89;;;0.06;76.29
37066;BME280;22981;43.080;25.550;2023-03-18T03:11:50;100234.75;;;0.08;76.02
37066;BME280;22981;43.080;25.550;2023-03-18T03:14:17;100240.38;;;0.09;75.90
37066;BME280;22981;43.080;25.550;2023-03-18T03:16:45;100238.58;;;-0.06;75.68
37066;BME280;22981;43.080;25.550;2023-03-18T03:19:13;100240.67;;;-0.31;75.64
37066;BME280;22981;43.080;25.550;2023-03-18T03:21:41;100241.90;;;-0.50;75.93
37066;BME280;22981;43.080;25.550;2023-03-18T03:24:09;100238.50;;;-0.62;76.11
37066;BME280;22981;43.080;25.550;2023-03-18T03:26:36;100240.55;;;-0.65;76.32
37066;BME280;22981;43.080;25.550;2023-03-18T03:29:04;100246.73;;;-0.61;76.29
37066;BME280;22981;43.080;25.550;2023-03-18T03:31:33;100235.27;;;-0.60;76.19
37066;BME280;22981;43.080;25.550;2023-03-18T03:34:01;100234.90;;;-0.61;76.08
37066;BME280;22981;43.080;25.550;2023-03-18T03:36:29;100228.42;;;-0.57;76.05
37066;BME280;22981;43.080;25.550;2023-03-18T03:38:56;100222.08;;;-0.54;75.95
37066;BME280;22981;43.080;25.550;2023-03-18T03:41:24;100215.34;;;-0.47;75.95
37066;BME280;22981;43.080;25.550;2023-03-18T03:43:52;100215.16;;;-0.40;75.80
37066;BME280;22981;43.080;25.550;2023-03-18T03:46:19;100215.34;;;-0.32;75.66
37066;BME280;22981;43.080;25.550;2023-03-18T03:48:47;100210.02;;;-0.26;75.48
37066;BME280;22981;43.080;25.550;2023-03-18T03:51:15;100212.88;;;-0.23;75.35
37066;BME280;22981;43.080;25.550;2023-03-18T03:53:43;100221.17;;;-0.28;75.18
37066;BME280;22981;43.080;25.550;2023-03-18T03:56:11;100225.48;;;-0.42;75.10
37066;BME280;22981;43.080;25.550;2023-03-18T03:58:39;100219.35;;;-0.58;75.22
37066;BME280;22981;43.080;25.550;2023-03-18T04:01:07;100221.11;;;-0.74;75.27
37066;BME280;22981;43.080;25.550;2023-03-18T04:03:34;100233.27;;;-0.88;75.37
37066;BME280;22981;43.080;25.550;2023-03-18T04:06:02;100234.18;;;-1.05;75.51
37066;BME280;22981;43.080;25.550;2023-03-18T04:08:30;100234.59;;;-1.15;75.67
37066;BME280;22981;43.080;25.550;2023-03-18T04:10:57;100234.00;;;-1.18;75.94
37066;BME280;22981;43.080;25.550;2023-03-18T04:13:25;100232.06;;;-1.11;76.04
37066;BME280;22981;43.080;25.550;2023-03-18T04:15:52;100241.20;;;-0.99;75.98
37066;BME280;22981;43.080;25.550;2023-03-18T04:18:20;100240.67;;;-0.88;75.87
37066;BME280;22981;43.080;25.550;2023-03-18T04:20:48;100237.17;;;-0.77;75.66
37066;BME280;22981;43.080;25.550;2023-03-18T04:23:15;100233.53;;;-0.70;75.46
37066;BME280;22981;43.080;25.550;2023-03-18T04:25:43;100234.11;;;-0.67;75.30
37066;BME280;22981;43.080;25.550;2023-03-18T04:28:10;100227.63;;;-0.63;75.28
37066;BME280;22981;43.080;25.550;2023-03-18T04:30:39;100235.23;;;-0.54;75.18
37066;BME280;22981;43.080;25.550;2023-03-18T04:33:07;100227.43;;;-0.50;75.08
37066;BME280;22981;43.080;25.550;2023-03-18T04:35:35;100229.33;;;-0.46;75.02
37066;BME280;22981;43.080;25.550;2023-03-18T04:38:03;100230.11;;;-0.40;75.01
37066;BME280;22981;43.080;25.550;2023-03-18T04:40:31;100216.91;;;-0.35;75.03
37066;BME280;22981;43.080;25.550;2023-03-18T04:42:58;100217.14;;;-0.32;74.96
37066;BME280;22981;43.080;25.550;2023-03-18T04:45:26;100220.83;;;-0.29;74.95
37066;BME280;22981;43.080;25.550;2023-03-18T04:47:54;100216.97;;;-0.25;74.96
37066;BME280;22981;43.080;25.550;2023-03-18T04:50:22;100218.00;;;-0.22;74.91
37066;BME280;22981;43.080;25.550;2023-03-18T04:52:50;100225.06;;;-0.22;74.91
37066;BME280;22981;43.080;25.550;2023-03-18T04:55:17;100227.59;;;-0.21;74.91
37066;BME280;22981;43.080;25.550;2023-03-18T04:57:47;100225.06;;;-0.22;74.82
37066;BME280;22981;43.080;25.550;2023-03-18T05:00:17;100226.92;;;-0.29;74.76
37066;BME280;22981;43.080;25.550;2023-03-18T05:02:49;100232.39;;;-0.41;74.84
37066;BME280;22981;43.080;25.550;2023-03-18T05:05:16;100235.81;;;-0.51;74.98
37066;BME280;22981;43.080;25.550;2023-03-18T05:07:44;100232.59;;;-0.54;75.24
37066;BME280;22981;43.080;25.550;2023-03-18T05:10:12;100238.20;;;-0.53;75.36
37066;BME280;22981;43.080;25.550;2023-03-18T05:12:39;100237.47;;;-0.49;75.38
37066;BME280;22981;43.080;25.550;2023-03-18T05:15:07;100246.42;;;-0.46;75.41
37066;BME280;22981;43.080;25.550;2023-03-18T05:17:35;100248.17;;;-0.41;75.38
37066;BME280;22981;43.080;25.550;2023-03-18T05:20:04;100258.55;;;-0.34;75.31
37066;BME280;22981;43.080;25.550;2023-03-18T05:22:31;100252.17;;;-0.32;75.17
37066;BME280;22981;43.080;25.550;2023-03-18T05:24:59;100255.14;;;-0.31;75.10
37066;BME280;22981;43.080;25.550;2023-03-18T05:27:27;100260.11;;;-0.37;75.10
37066;BME280;22981;43.080;25.550;2023-03-18T05:29:55;100262.50;;;-0.40;75.23
37066;BME280;22981;43.080;25.550;2023-03-18T05:32:22;100266.89;;;-0.35;75.37
37066;BME280;22981;43.080;25.550;2023-03-18T05:34:51;100274.03;;;-0.26;75.36
37066;BME280;22981;43.080;25.550;2023-03-18T05:37:19;100274.33;;;-0.19;75.27
37066;BME280;22981;43.080;25.550;2023-03-18T05:39:47;100269.64;;;-0.15;75.15
37066;BME280;22981;43.080;25.550;2023-03-18T05:42:15;100271.05;;;-0.11;75.11
37066;BME280;22981;43.080;25.550;2023-03-18T05:44:43;100276.75;;;-0.06;75.10
37066;BME280;22981;43.080;25.550;2023-03-18T05:47:11;100270.20;;;0.04;75.04
37066;BME280;22981;43.080;25.550;2023-03-18T05:49:38;100274.55;;;0.14;74.91
37066;BME280;22981;43.080;25.550;2023-03-18T05:52:06;100281.51;;;0.25;74.78
37066;BME280;22981;43.080;25.550;2023-03-18T05:54:34;100282.42;;;0.30;74.68
37066;BME280;22981;43.080;25.550;2023-03-18T05:57:02;100285.77;;;0.32;74.63
37066;BME280;22981;43.080;25.550;2023-03-18T05:59:29;100285.03;;;0.35;74.62
37066;BME280;22981;43.080;25.550;2023-03-18T06:01:57;100291.38;;;0.33;74.64
37066;BME280;22981;43.080;25.550;2023-03-18T06:04:25;100287.86;;;0.38;74.73
37066;BME280;22981;43.080;25.550;2023-03-18T06:06:53;100290.09;;;0.42;74.62
37066;BME280;22981;43.080;25.550;2023-03-18T06:09:22;100292.27;;;0.43;74.59
37066;BME280;22981;43.080;25.550;2023-03-18T06:11:51;100298.79;;;0.48;74.64
37066;BME280;22981;43.080;25.550;2023-03-18T06:14:19;100298.14;;;0.41;74.55
37066;BME280;22981;43.080;25.550;2023-03-18T06:16:47;100299.23;;;0.38;74.70
37066;BME280;22981;43.080;25.550;2023-03-18T06:19:14;100297.45;;;0.39;74.73
37066;BME280;22981;43.080;25.550;2023-03-18T06:21:42;100303.06;;;0.40;74.82
37066;BME280;22981;43.080;25.550;2023-03-18T06:24:10;100302.66;;;0.44;74.75
37066;BME280;22981;43.080;25.550;2023-03-18T06:26:38;100307.59;;;0.43;74.84
37066;BME280;22981;43.080;25.550;2023-03-18T06:29:06;100306.13;;;0.45;74.84
37066;BME280;22981;43.080;25.550;2023-03-18T06:31:34;100306.27;;;0.43;74.90
37066;BME280;22981;43.080;25.550;2023-03-18T06:34:03;100309.10;;;0.46;74.89
37066;BME280;22981;43.080;25.550;2023-03-18T06:36:30;100307.61;;;0.53;74.85
37066;BME280;22981;43.080;25.550;2023-03-18T06:38:58;100305.40;;;0.58;74.85
37066;BME280;22981;43.080;25.550;2023-03-18T06:41:26;100309.77;;;0.63;74.81
37066;BME280;22981;43.080;25.550;2023-03-18T06:43:54;100316.52;;;0.71;74.75
37066;BME280;22981;43.080;25.550;2023-03-18T06:46:22;100313.97;;;0.75;74.65
37066;BME280;22981;43.080;25.550;2023-03-18T06:48:50;100313.78;;;0.83;74.69
37066;BME280;22981;43.080;25.550;2023-03-18T06:51:20;100311.98;;;0.93;74.74
37066;BME280;22981;43.080;25.550;2023-03-18T06:53:47;100319.97;;;1.07;74.55
37066;BME280;22981;43.080;25.550;2023-03-18T06:56:15;100316.46;;;1.12;74.35
37066;BME280;22981;43.080;25.550;2023-03-18T06:58:42;100321.17;;;1.18;74.35
37066;BME280;22981;43.080;25.550;2023-03-18T07:01:11;100323.73;;;1.23;74.29
37066;BME280;22981;43.080;25.550;2023-03-18T07:03:39;100321.87;;;1.30;74.23
37066;BME280;22981;43.080;25.550;2023-03-18T07:06:06;100325.22;;;1.41;74.15
37066;BME280;22981;43.080;25.550;2023-03-18T07:08:35;100325.88;;;1.53;74.04
37066;BME280;22981;43.080;25.550;2023-03-18T07:11:03;100328.56;;;1.67;74.00
37066;BME280;22981;43.080;25.550;2023-03-18T07:13:32;100332.25;;;1.70;73.84
37066;BME280;22981;43.080;25.550;2023-03-18T07:16:00;100334.40;;;1.70;73.70
37066;BME280;22981;43.080;25.550;2023-03-18T07:18:27;100329.52;;;1.75;73.73
37066;BME280;22981;43.080;25.550;2023-03-18T07:20:55;100335.33;;;1.98;73.59
37066;BME280;22981;43.080;25.550;2023-03-18T07:23:24;100341.86;;;2.28;73.29
37066;BME280;22981;43.080;25.550;2023-03-18T07:25:52;100343.34;;;2.67;72.91
37066;BME280;22981;43.080;25.550;2023-03-18T07:28:20;100342.95;;;3.08;72.54
37066;BME280;22981;43.080;25.550;2023-03-18T07:30:47;100336.40;;;3.47;71.97
37066;BME280;22981;43.080;25.550;2023-03-18T07:33:15;100336.71;;;3.66;71.11
37066;BME280;22981;43.080;25.550;2023-03-18T07:35:43;100337.34;;;3.60;70.73
37066;BME280;22981;43.080;25.550;2023-03-18T07:38:11;100334.31;;;3.37;70.99
37066;BME280;22981;43.080;25.550;2023-03-18T07:40:39;100335.14;;;3.20;71.39
37066;BME280;22981;43.080;25.550;2023-03-18T07:43:06;100344.48;;;3.10;71.68
37066;BME280;22981;43.080;25.550;2023-03-18T07:45:34;100341.05;;;3.14;72.02
37066;BME280;22981;43.080;25.550;2023-03-18T07:48:02;100341.45;;;3.41;72.07
37066;BME280;22981;43.080;25.550;2023-03-18T07:50:31;100342.00;;;3.66;71.84
37066;BME280;22981;43.080;25.550;2023-03-18T07:52:59;100338.52;;;3.88;71.66
37066;BME280;22981;43.080;25.550;2023-03-18T07:55:26;100339.61;;;3.99;71.55
37066;BME280;22981;43.080;25.550;2023-03-18T07:57:54;100347.22;;;4.02;71.45
37066;BME280;22981;43.080;25.550;2023-03-18T08:00:22;100349.23;;;4.04;71.32
37066;BME280;22981;43.080;25.550;2023-03-18T08:02:51;100346.92;;;4.05;71.38
37066;BME280;22981;43.080;25.550;2023-03-18T08:05:19;100355.83;;;4.00;71.52
37066;BME280;22981;43.080;25.550;2023-03-18T08:07:47;100355.00;;;3.99;71.70
37066;BME280;22981;43.080;25.550;2023-03-18T08:10:15;100350.34;;;3.97;71.82
37066;BME280;22981;43.080;25.550;2023-03-18T08:12:43;100349.70;;;3.99;72.03
37066;BME280;22981;43.080;25.550;2023-03-18T08:15:11;100350.73;;;4.07;72.17
37066;BME280;22981;43.080;25.550;2023-03-18T08:17:38;100343.33;;;4.14;72.22
37066;BME280;22981;43.080;25.550;2023-03-18T08:20:07;100349.95;;;4.14;72.34
37066;BME280;22981;43.080;25.550;2023-03-18T08:22:35;100353.43;;;4.15;72.55
37066;BME280;22981;43.080;25.550;2023-03-18T08:25:02;100346.50;;;4.18;72.67
37066;BME280;22981;43.080;25.550;2023-03-18T08:27:30;100354.31;;;4.23;72.68
37066;BME280;22981;43.080;25.550;2023-03-18T08:29:58;100349.23;;;4.30;72.72
37066;BME280;22981;43.080;25.550;2023-03-18T08:32:25;100351.42;;;4.39;72.71
37066;BME280;22981;43.080;25.550;2023-03-18T08:34:53;100356.73;;;4.39;72.68
37066;BME280;22981;43.080;25.550;2023-03-18T08:37:20;100352.25;;;4.39;72.78
37066;BME280;22981;43.080;25.550;2023-03-18T08:39:48;100356.25;;;4.43;72.71
37066;BME280;22981;43.080;25.550;2023-03-18T08:42:16;100350.97;;;4.47;72.65
37066;BME280;22981;43.080;25.550;2023-03-18T08:44:44;100352.65;;;4.52;72.50
37066;BME280;22981;43.080;25.550;2023-03-18T08:47:12;100358.80;;;4.57;72.43
37066;BME280;22981;43.080;25.550;2023-03-18T08:49:39;100351.53;;;4.59;72.17
37066;BME280;22981;43.080;25.550;2023-03-18T08:52:07;100355.53;;;4.63;71.97
37066;BME280;22981;43.080;25.550;2023-03-18T08:54:35;100355.05;;;4.68;71.55
37066;BME280;22981;43.080;25.550;2023-03-18T08:57:03;100350.09;;;4.73;71.30
37066;BME280;22981;43.080;25.550;2023-03-18T08:59:31;100346.28;;;4.80;70.48
37066;BME280;22981;43.080;25.550;2023-03-18T09:01:58;100348.16;;;4.91;70.02
37066;BME280;22981;43.080;25.550;2023-03-18T09:04:26;100352.66;;;4.99;69.31
37066;BME280;22981;43.080;25.550;2023-03-18T09:06:54;100354.51;;;5.07;68.96
37066;BME280;22981;43.080;25.550;2023-03-18T09:09:22;100356.36;;;5.14;68.71
37066;BME280;22981;43.080;25.550;2023-03-18T09:11:50;100359.36;;;5.23;68.35
37066;BME280;22981;43.080;25.550;2023-03-18T09:14:18;100349.41;;;5.30;67.87
37066;BME280;22981;43.080;25.550;2023-03-18T09:16:46;100345.94;;;5.37;67.22
37066;BME280;22981;43.080;25.550;2023-03-18T09:19:14;100348.28;;;5.48;66.80
37066;BME280;22981;43.080;25.550;2023-03-18T09:21:41;100347.61;;;5.63;66.37
37066;BME280;22981;43.080;25.550;2023-03-18T09:24:09;100347.11;;;5.80;65.86
37066;BME280;22981;43.080;25.550;2023-03-18T09:26:37;100344.80;;;6.01;65.42
37066;BME280;22981;43.080;25.550;2023-03-18T09:29:05;100352.06;;;6.19;64.64
37066;BME280;22981;43.080;25.550;2023-03-18T09:31:32;100351.23;;;6.27;64.07
37066;BME280;22981;43.080;25.550;2023-03-18T09:34:00;100351.20;;;6.35;63.51
37066;BME280;22981;43.080;25.550;2023-03-18T09:36:28;100346.70;;;6.44;63.03
37066;BME280;22981;43.080;25.550;2023-03-18T09:38:55;100346.47;;;6.58;62.75
37066;BME280;22981;43.080;25.550;2023-03-18T09:41:29;100342.42;;;6.74;62.30
37066;BME280;22981;43.080;25.550;2023-03-18T09:46:40;100336.82;;;6.96;60.75
37066;BME280;22981;43.080;25.550;2023-03-18T09:52:15;100330.38;;;7.17;59.63
37066;BME280;22981;43.080;25.550;2023-03-18T09:57:41;100313.09;;;8.12;58.11
37066;BME280;22981;43.080;25.550;2023-03-18T10:00:28;100317.23;;;8.48;56.86
37066;BME280;22981;43.080;25.550;2023-03-18T10:03:00;100315.47;;;8.81;55.64
37066;BME280;22981;43.080;25.550;2023-03-18T10:05:31;100307.64;;;9.05;55.63
37066;BME280;22981;43.080;25.550;2023-03-18T10:08:05;100301.91;;;9.29;55.31
37066;BME280;22981;43.080;25.550;2023-03-18T10:10:35;100305.69;;;9.35;54.79
37066;BME280;22981;43.080;25.550;2023-03-18T10:13:51;100299.64;;;9.47;54.06
37066;BME280;22981;43.080;25.550;2023-03-18T10:15:38;100303.11;;;9.59;53.33
37066;BME280;22981;43.080;25.550;2023-03-18T10:18:17;100301.47;;;9.68;53.46
37066;BME280;22981;43.080;25.550;2023-03-18T10:21:01;100295.00;;;10.01;52.51
37066;BME280;22981;43.080;25.550;2023-03-18T10:26:29;100287.12;;;10.32;48.55
37066;BME280;22981;43.080;25.550;2023-03-18T10:32:13;100283.05;;;10.97;47.89
37066;BME280;22981;43.080;25.550;2023-03-18T10:35:04;100273.20;;;11.24;47.17
37066;BME280;22981;43.080;25.550;2023-03-18T10:40:20;100265.07;;;11.55;47.09
37066;BME280;22981;43.080;25.550;2023-03-18T10:42:50;100266.11;;;11.54;46.22
37066;BME280;22981;43.080;25.550;2023-03-18T10:45:24;100257.03;;;11.62;46.45
37066;BME280;22981;43.080;25.550;2023-03-18T10:48:14;100264.55;;;11.69;46.43
37066;BME280;22981;43.080;25.550;2023-03-18T10:50:45;100270.52;;;11.77;46.33
37066;BME280;22981;43.080;25.550;2023-03-18T10:53:29;100273.53;;;11.78;45.98
37066;BME280;22981;43.080;25.550;2023-03-18T10:56:00;100275.63;;;11.83;45.75
37066;BME280;22981;43.080;25.550;2023-03-18T10:58:27;100267.25;;;11.95;45.74
37066;BME280;22981;43.080;25.550;2023-03-18T11:00:55;100262.76;;;12.12;45.41
37066;BME280;22981;43.080;25.550;2023-03-18T11:03:31;100261.19;;;12.20;44.87
37066;BME280;22981;43.080;25.550;2023-03-18T11:06:01;100260.67;;;12.20;44.85
37066;BME280;22981;43.080;25.550;2023-03-18T11:08:38;100264.51;;;12.15;44.74
37066;BME280;22981;43.080;25.550;2023-03-18T11:11:27;100265.14;;;12.11;44.83
37066;BME280;22981;43.080;25.550;2023-03-18T11:13:56;100257.23;;;12.00;44.59
37066;BME280;22981;43.080;25.550;2023-03-18T11:16:39;100252.16;;;12.01;44.55
37066;BME280;22981;43.080;25.550;2023-03-18T11:19:21;100254.00;;;12.07;44.71
37066;BME280;22981;43.080;25.550;2023-03-18T11:21:44;100250.00;;;12.00;44.67
37066;BME280;22981;43.080;25.550;2023-03-18T11:24:58;100248.30;;;12.19;44.48
37066;BME280;22981;43.080;25.550;2023-03-18T11:26:55;100241.06;;;12.20;43.65
37066;BME280;22981;43.080;25.550;2023-03-18T11:29:31;100230.55;;;12.18;43.98
37066;BME280;22981;43.080;25.550;2023-03-18T11:32:00;100232.25;;;12.35;44.03
37066;BME280;22981;43.080;25.550;2023-03-18T11:34:31;100220.39;;;12.34;43.93
37066;BME280;22981;43.080;25.550;2023-03-18T11:37:05;100221.05;;;12.45;44.22
37066;BME280;22981;43.080;25.550;2023-03-18T11:39:40;100224.19;;;12.35;43.87
37066;BME280;22981;43.080;25.550;2023-03-18T11:42:20;100224.52;;;11.94;44.37
37066;BME280;22981;43.080;25.550;2023-03-18T11:44:44;100221.34;;;11.88;44.06
37066;BME280;22981;43.080;25.550;2023-03-18T11:47:18;100220.08;;;11.97;44.09
37066;BME280;22981;43.080;25.550;2023-03-18T11:49:45;100218.73;;;12.03;44.16
37066;BME280;22981;43.080;25.550;2023-03-18T12:00:28;100201.41;;;11.73;44.36
37066;BME280;22981;43.080;25.550;2023-03-18T12:05:53;100202.11;;;12.04;44.21
37066;BME280;22981;43.080;25.550;2023-03-18T12:08:42;100196.86;;;12.29;43.90
37066;BME280;22981;43.080;25.550;2023-03-18T12:16:52;100196.64;;;12.85;42.54
37066;BME280;22981;43.080;25.550;2023-03-18T12:22:50;100198.72;;;12.67;41.80
37066;BME280;22981;43.080;25.550;2023-03-18T12:25:33;100195.06;;;12.03;42.59
37066;BME280;22981;43.080;25.550;2023-03-18T12:33:42;100188.72;;;12.20;43.01
37066;BME280;22981;43.080;25.550;2023-03-18T12:36:44;100196.11;;;12.53;42.69
37066;BME280;22981;43.080;25.550;2023-03-18T12:39:37;100193.34;;;12.67;41.93
37066;BME280;22981;43.080;25.550;2023-03-18T12:47:35;100173.38;;;12.56;41.36
37066;BME280;22981;43.080;25.550;2023-03-18T12:50:27;100178.42;;;12.39;41.74
37066;BME280;22981;43.080;25.550;2023-03-18T12:55:51;100174.22;;;12.72;42.28
37066;BME280;22981;43.080;25.550;2023-03-18T12:58:29;100161.25;;;12.94;41.49
37066;BME280;22981;43.080;25.550;2023-03-18T13:01:04;100167.15;;;12.78;41.58
37066;BME280;22981;43.080;25.550;2023-03-18T13:03:39;100162.78;;;12.68;41.73
37066;BME280;22981;43.080;25.550;2023-03-18T13:06:19;100164.05;;;12.59;41.91
37066;BME280;22981;43.080;25.550;2023-03-18T13:08:53;100161.86;;;12.65;41.87
37066;BME280;22981;43.080;25.550;2023-03-18T13:11:47;100151.62;;;12.80;41.35
37066;BME280;22981;43.080;25.550;2023-03-18T13:14:46;100148.99;;;12.73;40.78
37066;BME280;22981;43.080;25.550;2023-03-18T13:17:15;100156.17;;;12.48;41.07
37066;BME280;22981;43.080;25.550;2023-03-18T13:19:43;100152.62;;;12.38;41.43
37066;BME280;22981;43.080;25.550;2023-03-18T13:22:44;100149.55;;;12.28;41.63
37066;BME280;22981;43.080;25.550;2023-03-18T13:30:33;100154.22;;;11.52;42.49
37066;BME280;22981;43.080;25.550;2023-03-18T13:33:25;100154.72;;;11.58;42.63
37066;BME280;22981;43.080;25.550;2023-03-18T13:36:10;100157.09;;;11.57;42.41
37066;BME280;22981;43.080;25.550;2023-03-18T13:39:07;100147.94;;;11.29;42.61
37066;BME280;22981;43.080;25.550;2023-03-18T13:44:13;100138.98;;;11.13;41.88
37066;BME280;22981;43.080;25.550;2023-03-18T13:46:39;100134.65;;;11.32;41.73
37066;BME280;22981;43.080;25.550;2023-03-18T13:49:15;100132.05;;;11.34;41.41
37066;BME280;22981;43.080;25.550;2023-03-18T13:51:48;100135.98;;;11.25;41.74
37066;BME280;22981;43.080;25.550;2023-03-18T13:54:18;100130.54;;;11.22;42.01
37066;BME280;22981;43.080;25.550;2023-03-18T13:56:51;100130.19;;;11.35;41.99
37066;BME280;22981;43.080;25.550;2023-03-18T14:04:53;100133.43;;;11.01;42.22
37066;BME280;22981;43.080;25.550;2023-03-18T14:07:23;100129.61;;;10.80;42.43
37066;BME280;22981;43.080;25.550;2023-03-18T14:17:40;100128.00;;;10.48;42.47